createdAt,value
2019-01-28T00:00:23.290Z,981.27
2019-01-28T00:00:49.394Z,981.24
2019-01-28T00:01:15.503Z,981.23
2019-01-28T00:01:41.600Z,981.3
2019-01-28T00:02:07.705Z,981.28
2019-01-28T00:02:33.808Z,981.29
2019-01-28T00:02:59.912Z,981.33
2019-01-28T00:03:26.020Z,981.37
2019-01-28T00:03:52.122Z,981.27
2019-01-28T00:04:18.223Z,981.3
2019-01-28T00:04:44.328Z,981.21
2019-01-28T00:05:10.432Z,981.26
2019-01-28T00:05:36.544Z,981.24
2019-01-28T00:06:02.676Z,981.21
2019-01-28T00:06:28.815Z,981.34
2019-01-28T00:06:54.919Z,981.25
2019-01-28T00:07:21.027Z,981.24
2019-01-28T00:07:47.128Z,981.24
2019-01-28T00:08:13.264Z,981.2
2019-01-28T00:08:39.371Z,981.27
2019-01-28T00:09:05.476Z,981.27
2019-01-28T00:09:31.585Z,981.25
2019-01-28T00:09:57.684Z,981.16
2019-01-28T00:10:23.788Z,981.22
2019-01-28T00:10:49.892Z,981.37
2019-01-28T00:11:15.996Z,981.18
2019-01-28T00:11:42.102Z,981.19
2019-01-28T00:12:08.199Z,981.21
2019-01-28T00:12:34.932Z,981.25
2019-01-28T00:13:01.096Z,981.16
2019-01-28T00:13:27.198Z,981.22
2019-01-28T00:13:53.300Z,981.2
2019-01-28T00:14:19.409Z,981.23
2019-01-28T00:14:45.518Z,981.16
2019-01-28T00:15:11.624Z,981.32
2019-01-28T00:15:37.725Z,981.26
2019-01-28T00:16:03.839Z,981.21
2019-01-28T00:16:29.944Z,981.11
2019-01-28T00:16:56.055Z,981.22
2019-01-28T00:17:22.157Z,981.25
2019-01-28T00:17:48.259Z,981.27
2019-01-28T00:18:14.383Z,981.23
2019-01-28T00:18:40.470Z,981.2
2019-01-28T00:19:06.576Z,981.16
2019-01-28T00:19:32.684Z,981.18
2019-01-28T00:19:58.817Z,981.27
2019-01-28T00:20:24.931Z,981.24
2019-01-28T00:20:51.040Z,981.22
2019-01-28T00:21:17.198Z,981.3
2019-01-28T00:21:43.297Z,981.18
2019-01-28T00:22:09.405Z,981.18
2019-01-28T00:22:35.512Z,981.23
2019-01-28T00:23:01.618Z,981.15
2019-01-28T00:23:27.721Z,981.19
2019-01-28T00:23:53.812Z,981.17
2019-01-28T00:24:19.923Z,981.16
2019-01-28T00:24:46.033Z,981.14
2019-01-28T00:25:12.137Z,981.15
2019-01-28T00:25:38.245Z,981.19
2019-01-28T00:26:04.347Z,981.19
2019-01-28T00:26:30.486Z,981.09
2019-01-28T00:26:56.622Z,981.09
2019-01-28T00:27:22.756Z,981.18
2019-01-28T00:27:48.867Z,981.14
2019-01-28T00:28:14.962Z,981.12
2019-01-28T00:28:41.764Z,981.19
2019-01-28T00:29:07.867Z,981.17
2019-01-28T00:29:33.972Z,981.17
2019-01-28T00:30:00.102Z,981.11
2019-01-28T00:30:26.233Z,981.11
2019-01-28T00:30:52.338Z,981.07
2019-01-28T00:31:18.442Z,981.12
2019-01-28T00:31:44.543Z,981.04
2019-01-28T00:32:10.650Z,981.04
2019-01-28T00:32:36.744Z,981.07
2019-01-28T00:33:02.853Z,981.14
2019-01-28T00:33:29.013Z,981.08
2019-01-28T00:33:55.170Z,981.05
2019-01-28T00:34:21.284Z,981.11
2019-01-28T00:34:47.389Z,981.07
2019-01-28T00:35:13.524Z,981.08
2019-01-28T00:35:39.629Z,981.07
2019-01-28T00:36:05.732Z,981.04
2019-01-28T00:36:31.841Z,981.1
2019-01-28T00:36:57.942Z,981.12
2019-01-28T00:37:24.046Z,981.07
2019-01-28T00:37:50.152Z,981.16
2019-01-28T00:38:16.282Z,981.11
2019-01-28T00:38:42.386Z,981.07
2019-01-28T00:39:08.488Z,981.01
2019-01-28T00:39:34.602Z,981.13
2019-01-28T00:40:00.706Z,981.11
2019-01-28T00:40:26.811Z,981.16
2019-01-28T00:40:52.917Z,981.18
2019-01-28T00:41:19.025Z,981.13
2019-01-28T00:41:45.132Z,981.11
2019-01-28T00:42:11.232Z,981.08
2019-01-28T00:42:37.339Z,981.03
2019-01-28T00:43:03.445Z,981.26
2019-01-28T00:43:29.575Z,981.09
2019-01-28T00:43:55.681Z,981.06
2019-01-28T00:44:21.789Z,981.1
2019-01-28T00:44:47.888Z,981.08
2019-01-28T00:45:14.035Z,981.06
2019-01-28T00:45:40.163Z,981.1
2019-01-28T00:46:06.270Z,981.04
2019-01-28T00:46:32.373Z,981.11
2019-01-28T00:46:58.481Z,981.04
2019-01-28T00:47:24.584Z,981.05
2019-01-28T00:47:50.687Z,981.05
2019-01-28T00:48:16.793Z,981.18
2019-01-28T00:48:42.894Z,981.07
2019-01-28T00:49:09.033Z,981.01
2019-01-28T00:49:35.144Z,981.05
2019-01-28T00:50:01.243Z,981.09
2019-01-28T00:50:27.349Z,981.04
2019-01-28T00:50:53.452Z,981.04
2019-01-28T00:51:19.556Z,981.11
2019-01-28T00:51:45.690Z,981.07
2019-01-28T00:52:11.786Z,981.01
2019-01-28T00:52:37.918Z,981.05
2019-01-28T00:53:04.025Z,981.04
2019-01-28T00:53:30.126Z,980.98
2019-01-28T00:53:56.236Z,981.03
2019-01-28T00:54:22.358Z,981
2019-01-28T00:54:48.465Z,981.03
2019-01-28T00:55:14.565Z,981.11
2019-01-28T00:55:40.711Z,981.04
2019-01-28T00:56:06.847Z,980.99
2019-01-28T00:56:32.978Z,981.01
2019-01-28T00:56:59.087Z,981.04
2019-01-28T00:57:25.215Z,981.04
2019-01-28T00:57:51.326Z,981.08
2019-01-28T00:58:17.462Z,981.03
2019-01-28T00:58:43.564Z,981.04
2019-01-28T00:59:09.668Z,981.09
2019-01-28T00:59:35.766Z,980.98
2019-01-28T01:00:01.903Z,981.06
2019-01-28T01:00:28.001Z,981.03
2019-01-28T01:00:54.107Z,981.01
2019-01-28T01:01:21.094Z,981.03
2019-01-28T01:01:47.208Z,980.95
2019-01-28T01:02:13.317Z,981.07
2019-01-28T01:02:39.423Z,981
2019-01-28T01:03:05.532Z,981.05
2019-01-28T01:03:31.697Z,981.05
2019-01-28T01:03:57.756Z,981.06
2019-01-28T01:04:23.914Z,981.04
2019-01-28T01:04:50.027Z,981.05
2019-01-28T01:05:16.134Z,981.07
2019-01-28T01:05:42.262Z,980.99
2019-01-28T01:06:08.366Z,981.03
2019-01-28T01:06:34.498Z,981.07
2019-01-28T01:07:00.614Z,981.02
2019-01-28T01:07:26.713Z,981.15
2019-01-28T01:07:52.822Z,981.07
2019-01-28T01:08:18.924Z,981.03
2019-01-28T01:08:45.031Z,981.02
2019-01-28T01:09:11.129Z,981.06
2019-01-28T01:09:37.235Z,981.09
2019-01-28T01:10:03.335Z,981.04
2019-01-28T01:10:29.435Z,981.21
2019-01-28T01:10:55.548Z,980.97
2019-01-28T01:11:21.648Z,981.07
2019-01-28T01:11:47.759Z,980.98
2019-01-28T01:12:13.896Z,981.03
2019-01-28T01:12:40.001Z,980.92
2019-01-28T01:13:06.114Z,981
2019-01-28T01:13:32.217Z,981
2019-01-28T01:13:58.316Z,980.97
2019-01-28T01:14:24.465Z,980.95
2019-01-28T01:14:50.561Z,981.04
2019-01-28T01:15:16.676Z,981.02
2019-01-28T01:15:42.786Z,981.01
2019-01-28T01:16:08.888Z,981.03
2019-01-28T01:16:34.998Z,981.02
2019-01-28T01:17:01.145Z,981.04
2019-01-28T01:17:27.236Z,980.97
2019-01-28T01:17:53.343Z,980.89
2019-01-28T01:18:19.446Z,981.01
2019-01-28T01:18:45.553Z,980.93
2019-01-28T01:19:11.680Z,981.02
2019-01-28T01:19:37.782Z,980.97
2019-01-28T01:20:03.892Z,981.03
2019-01-28T01:20:30.025Z,980.98
2019-01-28T01:20:56.128Z,980.95
2019-01-28T01:21:22.234Z,981.12
2019-01-28T01:21:48.330Z,980.98
2019-01-28T01:22:14.444Z,980.98
2019-01-28T01:22:40.546Z,980.99
2019-01-28T01:23:06.649Z,981.06
2019-01-28T01:23:32.762Z,980.88
2019-01-28T01:23:58.867Z,980.94
2019-01-28T01:24:24.964Z,980.91
2019-01-28T01:24:51.064Z,981.06
2019-01-28T01:25:17.166Z,980.98
2019-01-28T01:25:43.336Z,980.98
2019-01-28T01:26:09.443Z,980.9
2019-01-28T01:26:35.552Z,980.96
2019-01-28T01:27:01.652Z,980.98
2019-01-28T01:27:27.766Z,980.97
2019-01-28T01:27:53.872Z,980.87
2019-01-28T01:28:19.973Z,980.95
2019-01-28T01:28:46.072Z,981.05
2019-01-28T01:29:12.183Z,980.93
2019-01-28T01:29:38.284Z,980.92
2019-01-28T01:30:04.391Z,981.03
2019-01-28T01:30:30.499Z,980.93
2019-01-28T01:30:56.603Z,980.98
2019-01-28T01:31:22.708Z,980.94
2019-01-28T01:31:48.816Z,980.93
2019-01-28T01:32:14.920Z,980.95
2019-01-28T01:32:41.021Z,980.96
2019-01-28T01:33:07.122Z,980.96
2019-01-28T01:33:33.258Z,980.98
2019-01-28T01:33:59.375Z,981.08
2019-01-28T01:34:25.471Z,980.93
2019-01-28T01:34:51.573Z,980.98
2019-01-28T01:35:17.714Z,980.9
2019-01-28T01:35:43.879Z,980.96
2019-01-28T01:36:09.976Z,981.05
2019-01-28T01:36:36.079Z,980.99
2019-01-28T01:37:02.186Z,981.02
2019-01-28T01:37:28.289Z,981.04
2019-01-28T01:37:54.423Z,981.05
2019-01-28T01:38:20.533Z,980.93
2019-01-28T01:38:46.637Z,980.98
2019-01-28T01:39:12.746Z,980.92
2019-01-28T01:39:38.874Z,980.94
2019-01-28T01:40:04.997Z,980.89
2019-01-28T01:40:31.131Z,980.85
2019-01-28T01:40:57.240Z,980.9
2019-01-28T01:41:23.335Z,980.97
2019-01-28T01:41:49.447Z,980.88
2019-01-28T01:42:15.593Z,980.86
2019-01-28T01:42:41.645Z,980.9
2019-01-28T01:43:07.746Z,980.92
2019-01-28T01:43:33.856Z,980.89
2019-01-28T01:43:59.958Z,980.93
2019-01-28T01:44:26.092Z,980.91
2019-01-28T01:44:52.230Z,980.81
2019-01-28T01:45:18.305Z,980.88
2019-01-28T01:45:44.440Z,980.9
2019-01-28T01:46:10.541Z,980.91
2019-01-28T01:46:36.651Z,980.87
2019-01-28T01:47:02.749Z,980.77
2019-01-28T01:47:28.858Z,980.81
2019-01-28T01:47:54.968Z,980.79
2019-01-28T01:48:21.066Z,980.89
2019-01-28T01:48:47.163Z,980.84
2019-01-28T01:49:13.274Z,980.89
2019-01-28T01:49:40.373Z,980.84
2019-01-28T01:50:06.480Z,980.84
2019-01-28T01:50:32.580Z,980.8
2019-01-28T01:50:58.687Z,980.94
2019-01-28T01:51:24.795Z,980.82
2019-01-28T01:51:50.900Z,980.79
2019-01-28T01:52:17.008Z,980.83
2019-01-28T01:52:43.112Z,980.81
2019-01-28T01:53:09.219Z,980.9
2019-01-28T01:53:35.322Z,980.77
2019-01-28T01:54:01.431Z,980.77
2019-01-28T01:54:27.558Z,980.8
2019-01-28T01:54:53.658Z,980.85
2019-01-28T01:55:19.768Z,980.88
2019-01-28T01:55:45.898Z,980.81
2019-01-28T01:56:12.004Z,980.82
2019-01-28T01:56:38.104Z,980.76
2019-01-28T01:57:04.236Z,980.83
2019-01-28T01:57:30.342Z,980.84
2019-01-28T01:57:56.442Z,980.77
2019-01-28T01:58:22.579Z,980.76
2019-01-28T01:58:48.718Z,980.65
2019-01-28T01:59:14.854Z,980.74
2019-01-28T01:59:40.983Z,980.77
2019-01-28T02:00:07.100Z,980.72
2019-01-28T02:00:33.224Z,980.82
2019-01-28T02:00:59.332Z,980.76
2019-01-28T02:01:25.458Z,980.81
2019-01-28T02:01:51.565Z,980.82
2019-01-28T02:02:17.662Z,980.74
2019-01-28T02:02:44.755Z,980.71
2019-01-28T02:03:10.863Z,980.73
2019-01-28T02:03:36.970Z,980.74
2019-01-28T02:04:03.077Z,980.76
2019-01-28T02:04:29.184Z,980.77
2019-01-28T02:04:55.313Z,980.97
2019-01-28T02:05:21.416Z,980.78
2019-01-28T02:05:47.520Z,980.72
2019-01-28T02:06:13.622Z,980.78
2019-01-28T02:06:39.724Z,980.76
2019-01-28T02:07:05.857Z,980.69
2019-01-28T02:07:31.998Z,980.72
2019-01-28T02:07:58.093Z,980.7
2019-01-28T02:08:24.200Z,980.66
2019-01-28T02:08:50.310Z,980.72
2019-01-28T02:09:16.413Z,980.68
2019-01-28T02:09:42.523Z,980.69
2019-01-28T02:10:08.655Z,980.61
2019-01-28T02:10:34.761Z,980.66
2019-01-28T02:11:00.864Z,980.63
2019-01-28T02:11:27.019Z,980.67
2019-01-28T02:11:53.127Z,980.62
2019-01-28T02:12:19.236Z,980.62
2019-01-28T02:12:45.391Z,980.62
2019-01-28T02:13:11.521Z,980.76
2019-01-28T02:13:37.653Z,980.57
2019-01-28T02:14:03.756Z,980.58
2019-01-28T02:14:29.872Z,980.59
2019-01-28T02:14:55.973Z,980.63
2019-01-28T02:15:22.078Z,980.62
2019-01-28T02:15:48.204Z,980.68
2019-01-28T02:16:14.309Z,980.56
2019-01-28T02:16:40.448Z,980.56
2019-01-28T02:17:06.579Z,980.66
2019-01-28T02:17:32.691Z,980.63
2019-01-28T02:17:58.823Z,980.62
2019-01-28T02:18:24.920Z,980.62
2019-01-28T02:18:51.030Z,980.49
2019-01-28T02:19:17.157Z,980.64
2019-01-28T02:19:43.293Z,980.66
2019-01-28T02:20:09.398Z,980.53
2019-01-28T02:20:35.493Z,980.69
2019-01-28T02:21:01.599Z,980.52
2019-01-28T02:21:27.739Z,980.53
2019-01-28T02:21:53.839Z,980.51
2019-01-28T02:22:19.940Z,980.51
2019-01-28T02:22:46.050Z,980.55
2019-01-28T02:23:12.181Z,980.51
2019-01-28T02:23:38.290Z,980.45
2019-01-28T02:24:04.389Z,980.51
2019-01-28T02:24:30.488Z,980.57
2019-01-28T02:24:56.591Z,980.64
2019-01-28T02:25:22.695Z,980.51
2019-01-28T02:25:48.808Z,980.49
2019-01-28T02:26:14.910Z,980.49
2019-01-28T02:26:41.042Z,980.56
2019-01-28T02:27:07.142Z,980.57
2019-01-28T02:27:33.252Z,980.5
2019-01-28T02:27:59.358Z,980.55
2019-01-28T02:28:25.456Z,980.5
2019-01-28T02:28:51.559Z,980.48
2019-01-28T02:29:17.663Z,980.44
2019-01-28T02:29:43.774Z,980.48
2019-01-28T02:30:09.881Z,980.47
2019-01-28T02:30:36.042Z,980.46
2019-01-28T02:31:02.186Z,980.51
2019-01-28T02:31:28.296Z,980.51
2019-01-28T02:31:54.405Z,980.41
2019-01-28T02:32:20.498Z,980.44
2019-01-28T02:32:46.611Z,980.49
2019-01-28T02:33:12.742Z,980.43
2019-01-28T02:33:38.846Z,980.42
2019-01-28T02:34:04.982Z,980.48
2019-01-28T02:34:31.123Z,980.28
2019-01-28T02:34:57.247Z,980.32
2019-01-28T02:35:23.363Z,980.4
2019-01-28T02:35:49.458Z,980.36
2019-01-28T02:36:15.593Z,980.37
2019-01-28T02:36:41.704Z,980.35
2019-01-28T02:37:07.830Z,980.32
2019-01-28T02:37:33.961Z,980.32
2019-01-28T02:38:00.070Z,980.39
2019-01-28T02:38:26.171Z,980.34
2019-01-28T02:38:52.280Z,980.34
2019-01-28T02:39:18.405Z,980.39
2019-01-28T02:39:44.508Z,980.35
2019-01-28T02:40:10.824Z,980.32
2019-01-28T02:40:36.917Z,980.21
2019-01-28T02:41:03.111Z,980.45
2019-01-28T02:41:29.209Z,980.38
2019-01-28T02:41:55.347Z,980.44
2019-01-28T02:42:21.450Z,980.43
2019-01-28T02:42:47.555Z,980.39
2019-01-28T02:43:13.694Z,980.47
2019-01-28T02:43:39.822Z,980.34
2019-01-28T02:44:05.928Z,980.38
2019-01-28T02:44:32.073Z,980.34
2019-01-28T02:44:58.171Z,980.37
2019-01-28T02:45:24.311Z,980.36
2019-01-28T02:45:50.438Z,980.42
2019-01-28T02:46:16.569Z,980.39
2019-01-28T02:46:42.734Z,980.45
2019-01-28T02:47:08.834Z,980.42
2019-01-28T02:47:34.973Z,980.22
2019-01-28T02:48:01.094Z,980.35
2019-01-28T02:48:27.216Z,980.3
2019-01-28T02:48:53.353Z,980.37
2019-01-28T02:49:19.487Z,980.4
2019-01-28T02:49:45.597Z,980.3
2019-01-28T02:50:11.735Z,980.39
2019-01-28T02:50:37.877Z,980.42
2019-01-28T02:51:03.987Z,980.38
2019-01-28T02:51:30.110Z,980.49
2019-01-28T02:51:56.247Z,980.37
2019-01-28T02:52:22.381Z,980.3
2019-01-28T02:52:48.484Z,980.29
2019-01-28T02:53:14.650Z,980.31
2019-01-28T02:53:40.756Z,980.31
2019-01-28T02:54:06.857Z,980.39
2019-01-28T02:54:32.958Z,980.24
2019-01-28T02:54:59.069Z,980.26
2019-01-28T02:55:25.161Z,980.31
2019-01-28T02:55:51.267Z,980.42
2019-01-28T02:56:17.365Z,980.24
2019-01-28T02:56:43.528Z,980.36
2019-01-28T02:57:09.631Z,980.27
2019-01-28T02:57:35.738Z,980.35
2019-01-28T02:58:01.892Z,980.22
2019-01-28T02:58:27.999Z,980.33
2019-01-28T02:58:54.098Z,980.26
2019-01-28T02:59:20.205Z,980.28
2019-01-28T02:59:46.369Z,980.39
2019-01-28T03:00:12.479Z,980.37
2019-01-28T03:00:38.606Z,980.36
2019-01-28T03:01:04.707Z,980.22
2019-01-28T03:01:30.836Z,980.34
2019-01-28T03:01:56.948Z,980.31
2019-01-28T03:02:23.047Z,980.2
2019-01-28T03:02:49.151Z,980.27
2019-01-28T03:03:15.314Z,980.26
2019-01-28T03:03:41.419Z,980.25
2019-01-28T03:04:07.553Z,980.28
2019-01-28T03:04:33.650Z,980.32
2019-01-28T03:04:59.757Z,980.24
2019-01-28T03:05:25.861Z,980.2
2019-01-28T03:05:51.963Z,980.3
2019-01-28T03:06:18.064Z,980.23
2019-01-28T03:06:44.204Z,980.19
2019-01-28T03:07:10.313Z,980.24
2019-01-28T03:07:36.421Z,980.15
2019-01-28T03:08:02.532Z,980.37
2019-01-28T03:08:28.633Z,980.31
2019-01-28T03:08:54.737Z,980.2
2019-01-28T03:09:20.916Z,980.16
2019-01-28T03:09:47.026Z,980.25
2019-01-28T03:10:13.157Z,980.19
2019-01-28T03:10:39.235Z,980.19
2019-01-28T03:11:05.341Z,980.06
2019-01-28T03:11:31.444Z,980.17
2019-01-28T03:11:57.573Z,980.16
2019-01-28T03:12:23.685Z,980.22
2019-01-28T03:12:49.813Z,980.18
2019-01-28T03:13:15.923Z,980.05
2019-01-28T03:13:42.023Z,980.18
2019-01-28T03:14:08.138Z,980.12
2019-01-28T03:14:34.258Z,980.15
2019-01-28T03:15:00.381Z,980.21
2019-01-28T03:15:26.466Z,980.14
2019-01-28T03:15:52.575Z,980.13
2019-01-28T03:16:18.710Z,980.17
2019-01-28T03:16:44.817Z,980.13
2019-01-28T03:17:10.918Z,980.09
2019-01-28T03:17:37.022Z,980.12
2019-01-28T03:18:03.158Z,980.07
2019-01-28T03:18:29.295Z,980.06
2019-01-28T03:18:55.398Z,980.06
2019-01-28T03:19:21.498Z,980.15
2019-01-28T03:19:47.608Z,980.11
2019-01-28T03:20:13.736Z,980.12
2019-01-28T03:20:39.842Z,980.06
2019-01-28T03:21:05.946Z,980.17
2019-01-28T03:21:32.108Z,980.09
2019-01-28T03:21:58.165Z,980.26
2019-01-28T03:22:24.265Z,980.09
2019-01-28T03:22:50.369Z,980.17
2019-01-28T03:23:16.477Z,980.14
2019-01-28T03:23:42.577Z,980.1
2019-01-28T03:24:08.687Z,980.08
2019-01-28T03:24:34.790Z,980.04
2019-01-28T03:25:00.889Z,980.05
2019-01-28T03:25:27.058Z,980.22
2019-01-28T03:25:53.163Z,980.13
2019-01-28T03:26:19.297Z,980.13
2019-01-28T03:26:45.410Z,980.01
2019-01-28T03:27:11.544Z,980.05
2019-01-28T03:27:37.648Z,980.18
2019-01-28T03:28:03.759Z,980.08
2019-01-28T03:28:29.893Z,980.06
2019-01-28T03:28:55.989Z,979.99
2019-01-28T03:29:22.095Z,980
2019-01-28T03:29:48.203Z,980.03
2019-01-28T03:30:14.303Z,980
2019-01-28T03:30:40.464Z,979.97
2019-01-28T03:31:06.622Z,980.03
2019-01-28T03:31:32.753Z,980.14
2019-01-28T03:31:58.926Z,980.03
2019-01-28T03:32:25.052Z,979.99
2019-01-28T03:32:51.217Z,980.06
2019-01-28T03:33:17.383Z,980.15
2019-01-28T03:33:43.495Z,979.99
2019-01-28T03:34:09.634Z,980.03
2019-01-28T03:34:35.786Z,980.05
2019-01-28T03:35:01.891Z,980
2019-01-28T03:35:28.032Z,979.97
2019-01-28T03:35:54.140Z,980
2019-01-28T03:36:20.268Z,980.06
2019-01-28T03:36:46.399Z,980.03
2019-01-28T03:37:12.507Z,979.95
2019-01-28T03:37:38.615Z,979.9
2019-01-28T03:38:04.747Z,979.97
2019-01-28T03:38:30.910Z,979.87
2019-01-28T03:38:57.003Z,980.09
2019-01-28T03:39:23.105Z,979.95
2019-01-28T03:39:49.206Z,979.91
2019-01-28T03:40:15.348Z,980.02
2019-01-28T03:40:41.484Z,979.93
2019-01-28T03:41:07.620Z,979.98
2019-01-28T03:41:33.750Z,980
2019-01-28T03:41:59.911Z,980.01
2019-01-28T03:42:26.045Z,980
2019-01-28T03:42:52.204Z,980.02
2019-01-28T03:43:18.313Z,980.05
2019-01-28T03:43:44.445Z,980.05
2019-01-28T03:44:10.544Z,980.01
2019-01-28T03:44:36.715Z,980.08
2019-01-28T03:45:02.818Z,979.99
2019-01-28T03:45:28.921Z,979.94
2019-01-28T03:45:55.053Z,980.04
2019-01-28T03:46:21.159Z,980
2019-01-28T03:46:47.285Z,979.97
2019-01-28T03:47:13.395Z,980
2019-01-28T03:47:39.529Z,980.04
2019-01-28T03:48:05.632Z,979.98
2019-01-28T03:48:31.738Z,979.94
2019-01-28T03:48:57.892Z,979.98
2019-01-28T03:49:23.995Z,980.12
2019-01-28T03:49:50.135Z,980.01
2019-01-28T03:50:16.270Z,980.05
2019-01-28T03:50:42.403Z,979.91
2019-01-28T03:51:08.565Z,980.02
2019-01-28T03:51:34.700Z,980
2019-01-28T03:52:00.805Z,980.01
2019-01-28T03:52:26.939Z,979.98
2019-01-28T03:52:53.040Z,979.82
2019-01-28T03:53:19.175Z,979.98
2019-01-28T03:53:45.305Z,980.02
2019-01-28T03:54:11.442Z,979.89
2019-01-28T03:54:37.600Z,980.01
2019-01-28T03:55:03.739Z,979.99
2019-01-28T03:55:29.838Z,979.98
2019-01-28T03:55:55.981Z,979.97
2019-01-28T03:56:22.111Z,980.06
2019-01-28T03:56:48.254Z,980.05
2019-01-28T03:57:14.354Z,979.95
2019-01-28T03:57:40.496Z,979.94
2019-01-28T03:58:06.604Z,979.95
2019-01-28T03:58:32.712Z,979.88
2019-01-28T03:58:58.812Z,979.94
2019-01-28T03:59:24.913Z,979.91
2019-01-28T03:59:51.025Z,979.95
2019-01-28T04:00:17.146Z,979.97
2019-01-28T04:00:43.261Z,979.91
2019-01-28T04:01:09.398Z,979.96
2019-01-28T04:01:36.516Z,980
2019-01-28T04:02:02.648Z,979.98
2019-01-28T04:02:28.785Z,980.01
2019-01-28T04:02:54.919Z,979.92
2019-01-28T04:03:21.059Z,979.84
2019-01-28T04:03:47.166Z,979.96
2019-01-28T04:04:13.287Z,979.88
2019-01-28T04:04:39.397Z,979.87
2019-01-28T04:05:05.583Z,979.96
2019-01-28T04:05:31.682Z,979.93
2019-01-28T04:05:57.788Z,979.91
2019-01-28T04:06:23.898Z,979.95
2019-01-28T04:06:50.001Z,979.89
2019-01-28T04:07:16.137Z,979.95
2019-01-28T04:07:42.248Z,979.88
2019-01-28T04:08:08.349Z,979.89
2019-01-28T04:08:34.485Z,979.92
2019-01-28T04:09:00.600Z,980
2019-01-28T04:09:26.701Z,979.9
2019-01-28T04:09:52.799Z,979.96
2019-01-28T04:10:18.909Z,980
2019-01-28T04:10:45.062Z,979.89
2019-01-28T04:11:11.166Z,979.84
2019-01-28T04:11:37.278Z,979.87
2019-01-28T04:12:03.378Z,979.86
2019-01-28T04:12:29.488Z,979.84
2019-01-28T04:12:55.586Z,979.88
2019-01-28T04:13:21.694Z,979.92
2019-01-28T04:13:47.803Z,979.91
2019-01-28T04:14:13.914Z,979.89
2019-01-28T04:14:40.095Z,979.89
2019-01-28T04:15:06.251Z,979.84
2019-01-28T04:15:32.562Z,979.93
2019-01-28T04:15:58.798Z,979.89
2019-01-28T04:16:24.902Z,979.94
2019-01-28T04:16:51.008Z,979.8
2019-01-28T04:17:17.137Z,979.93
2019-01-28T04:17:43.306Z,979.83
2019-01-28T04:18:09.435Z,979.9
2019-01-28T04:18:35.537Z,979.96
2019-01-28T04:19:01.671Z,979.89
2019-01-28T04:19:27.778Z,979.89
2019-01-28T04:19:53.878Z,979.87
2019-01-28T04:20:20.018Z,979.83
2019-01-28T04:20:46.112Z,980.12
2019-01-28T04:21:12.250Z,979.82
2019-01-28T04:21:38.360Z,979.85
2019-01-28T04:22:04.470Z,979.81
2019-01-28T04:22:30.574Z,979.84
2019-01-28T04:22:56.698Z,979.84
2019-01-28T04:23:22.798Z,979.93
2019-01-28T04:23:48.922Z,979.87
2019-01-28T04:24:15.027Z,979.82
2019-01-28T04:24:41.136Z,979.83
2019-01-28T04:25:07.233Z,979.92
2019-01-28T04:25:34.326Z,979.86
2019-01-28T04:26:00.433Z,979.9
2019-01-28T04:26:26.567Z,979.86
2019-01-28T04:26:52.669Z,979.84
2019-01-28T04:27:18.775Z,979.86
2019-01-28T04:27:44.878Z,979.86
2019-01-28T04:28:10.987Z,979.83
2019-01-28T04:28:37.120Z,979.87
2019-01-28T04:29:03.242Z,979.91
2019-01-28T04:29:29.356Z,979.86
2019-01-28T04:29:55.467Z,979.82
2019-01-28T04:30:21.579Z,979.87
2019-01-28T04:30:47.710Z,979.89
2019-01-28T04:31:13.842Z,979.89
2019-01-28T04:31:39.975Z,979.9
2019-01-28T04:32:06.106Z,980
2019-01-28T04:32:32.214Z,979.87
2019-01-28T04:32:58.349Z,979.84
2019-01-28T04:33:24.481Z,979.81
2019-01-28T04:33:50.602Z,980
2019-01-28T04:34:16.742Z,979.86
2019-01-28T04:34:42.839Z,979.86
2019-01-28T04:35:08.946Z,979.91
2019-01-28T04:35:35.047Z,979.95
2019-01-28T04:36:01.154Z,979.88
2019-01-28T04:36:27.287Z,979.89
2019-01-28T04:36:53.416Z,979.79
2019-01-28T04:37:19.522Z,979.84
2019-01-28T04:37:45.629Z,979.82
2019-01-28T04:38:11.758Z,979.81
2019-01-28T04:38:37.864Z,979.79
2019-01-28T04:39:03.993Z,979.84
2019-01-28T04:39:30.123Z,979.77
2019-01-28T04:39:56.232Z,979.79
2019-01-28T04:40:22.386Z,979.8
2019-01-28T04:40:48.521Z,979.78
2019-01-28T04:41:14.623Z,979.87
2019-01-28T04:41:40.729Z,979.85
2019-01-28T04:42:06.829Z,979.9
2019-01-28T04:42:32.936Z,979.81
2019-01-28T04:42:59.074Z,979.84
2019-01-28T04:43:25.213Z,979.8
2019-01-28T04:43:51.322Z,979.86
2019-01-28T04:44:18.062Z,979.85
2019-01-28T04:44:44.262Z,979.78
2019-01-28T04:45:10.366Z,979.85
2019-01-28T04:45:36.500Z,979.72
2019-01-28T04:46:02.599Z,979.75
2019-01-28T04:46:28.736Z,979.81
2019-01-28T04:46:54.840Z,979.87
2019-01-28T04:47:20.970Z,979.79
2019-01-28T04:47:47.074Z,979.82
2019-01-28T04:48:13.208Z,979.85
2019-01-28T04:48:39.367Z,979.89
2019-01-28T04:49:05.509Z,979.78
2019-01-28T04:49:31.669Z,979.79
2019-01-28T04:49:57.835Z,979.8
2019-01-28T04:50:23.942Z,979.79
2019-01-28T04:50:50.044Z,979.78
2019-01-28T04:51:16.147Z,979.73
2019-01-28T04:51:42.254Z,979.83
2019-01-28T04:52:08.366Z,979.86
2019-01-28T04:52:34.464Z,979.78
2019-01-28T04:53:00.567Z,979.81
2019-01-28T04:53:26.698Z,979.85
2019-01-28T04:53:52.804Z,979.83
2019-01-28T04:54:18.914Z,979.82
2019-01-28T04:54:45.071Z,979.73
2019-01-28T04:55:11.182Z,979.8
2019-01-28T04:55:37.337Z,979.74
2019-01-28T04:56:03.500Z,979.76
2019-01-28T04:56:29.603Z,979.78
2019-01-28T04:56:55.770Z,979.77
2019-01-28T04:57:21.908Z,979.71
2019-01-28T04:57:48.013Z,979.74
2019-01-28T04:58:14.112Z,979.78
2019-01-28T04:58:40.223Z,979.84
2019-01-28T04:59:06.379Z,979.81
2019-01-28T04:59:32.491Z,979.85
2019-01-28T04:59:58.592Z,979.82
2019-01-28T05:00:24.731Z,979.85
2019-01-28T05:00:50.837Z,979.84
2019-01-28T05:01:16.930Z,979.9
2019-01-28T05:01:43.035Z,979.8
2019-01-28T05:02:09.140Z,979.81
2019-01-28T05:02:35.278Z,979.88
2019-01-28T05:03:01.374Z,979.76
2019-01-28T05:03:27.511Z,979.8
2019-01-28T05:03:53.617Z,979.81
2019-01-28T05:04:19.725Z,979.89
2019-01-28T05:04:45.877Z,979.7
2019-01-28T05:05:11.979Z,979.84
2019-01-28T05:05:38.078Z,979.82
2019-01-28T05:06:04.287Z,979.81
2019-01-28T05:06:30.412Z,979.81
2019-01-28T05:06:56.517Z,979.82
2019-01-28T05:07:22.655Z,979.83
2019-01-28T05:07:48.763Z,979.72
2019-01-28T05:08:14.929Z,979.87
2019-01-28T05:08:41.029Z,979.78
2019-01-28T05:09:07.166Z,979.79
2019-01-28T05:09:33.268Z,979.81
2019-01-28T05:09:59.377Z,979.79
2019-01-28T05:10:25.509Z,979.76
2019-01-28T05:10:51.613Z,979.77
2019-01-28T05:11:17.742Z,979.83
2019-01-28T05:11:43.859Z,979.75
2019-01-28T05:12:09.962Z,979.77
2019-01-28T05:12:36.066Z,979.79
2019-01-28T05:13:02.192Z,979.76
2019-01-28T05:13:28.307Z,979.84
2019-01-28T05:13:54.404Z,979.75
2019-01-28T05:14:20.569Z,979.81
2019-01-28T05:14:46.615Z,979.78
2019-01-28T05:15:12.725Z,979.81
2019-01-28T05:15:38.825Z,979.75
2019-01-28T05:16:04.926Z,979.82
2019-01-28T05:16:31.028Z,979.82
2019-01-28T05:16:57.140Z,979.8
2019-01-28T05:17:23.249Z,979.75
2019-01-28T05:17:49.370Z,979.75
2019-01-28T05:18:15.455Z,979.77
2019-01-28T05:18:41.553Z,979.78
2019-01-28T05:19:07.659Z,979.77
2019-01-28T05:19:33.787Z,979.82
2019-01-28T05:19:59.892Z,979.77
2019-01-28T05:20:26.017Z,979.76
2019-01-28T05:20:52.149Z,979.74
2019-01-28T05:21:18.290Z,979.72
2019-01-28T05:21:44.395Z,979.78
2019-01-28T05:22:10.538Z,979.75
2019-01-28T05:22:36.637Z,979.72
2019-01-28T05:23:02.772Z,979.75
2019-01-28T05:23:28.873Z,979.76
2019-01-28T05:23:55.004Z,979.75
2019-01-28T05:24:21.114Z,979.79
2019-01-28T05:24:47.211Z,979.78
2019-01-28T05:25:13.354Z,979.72
2019-01-28T05:25:39.460Z,979.86
2019-01-28T05:26:05.591Z,979.69
2019-01-28T05:26:31.692Z,979.73
2019-01-28T05:26:57.803Z,979.81
2019-01-28T05:27:23.936Z,979.77